Time;durP1;ratioP1;P1;durP2;ratioP2;P2;SDS_P1;SDS_P2;PMS_P1;PMS_P2;Temp;Humidity;BMP_temperature;BMP_pressure;BME280_temperature;BME280_humidity;BME280_pressure;Samples;Min_cycle;Max_cycle;Signal;HPM_P1;HPM_P2
2022/08/17 00:00:17;;;;;;;10.93;7.33;;;;;;;20.85;90.02;99693.66;5036567;28;20814;-71
2022/08/17 00:02:56;;;;;;;9.30;7.57;;;;;;;20.83;90.20;99687.47;5043973;28;20451;-71
2022/08/17 00:05:23;;;;;;;7.63;6.93;;;;;;;20.75;90.86;99682.75;5036839;28;20457;-72
2022/08/17 00:07:50;;;;;;;9.30;7.73;;;;;;;20.67;91.39;99687.25;5039237;28;20463;-73
2022/08/17 00:10:16;;;;;;;13.13;7.03;;;;;;;20.61;91.85;99689.59;5034064;28;20779;-72
2022/08/17 00:12:44;;;;;;;8.27;7.47;;;;;;;20.61;92.27;99689.59;5048054;28;20479;-71
2022/08/17 00:15:13;;;;;;;8.50;7.70;;;;;;;20.66;91.94;99694.59;5037208;28;20465;-72
2022/08/17 00:17:40;;;;;;;8.43;7.03;;;;;;;20.63;92.78;99691.34;5042852;28;20560;-70
2022/08/17 00:20:09;;;;;;;7.67;6.93;;;;;;;20.58;93.46;99689.91;5025293;28;20515;-71
2022/08/17 00:22:35;;;;;;;6.97;6.27;;;;;;;20.57;93.76;99690.91;5032299;28;20983;-70
2022/08/17 00:25:04;;;;;;;8.70;7.33;;;;;;;20.50;94.91;99684.28;5042372;28;20486;-70
2022/08/17 00:27:30;;;;;;;7.93;6.97;;;;;;;20.35;96.32;99686.66;5034765;28;20459;-70
2022/08/17 00:29:57;;;;;;;7.80;7.10;;;;;;;20.37;96.56;99691.97;5042568;28;20456;-70
2022/08/17 00:32:25;;;;;;;9.63;7.87;;;;;;;20.39;96.25;99684.47;5037976;28;20481;-70
2022/08/17 00:34:52;;;;;;;8.80;7.70;;;;;;;20.38;96.72;99688.25;5035966;28;20475;-70
2022/08/17 00:37:18;;;;;;;10.20;7.90;;;;;;;20.28;97.55;99682.78;5041120;28;20508;-70
2022/08/17 00:39:45;;;;;;;9.03;7.97;;;;;;;20.27;97.66;99682.97;5040680;28;20455;-71
2022/08/17 00:42:15;;;;;;;7.93;7.13;;;;;;;20.23;98.36;99687.84;5034517;28;20461;-71
2022/08/17 00:44:41;;;;;;;8.40;6.67;;;;;;;20.22;98.32;99679.81;5037197;28;20448;-72
2022/08/17 00:47:08;;;;;;;7.77;6.93;;;;;;;20.28;98.01;99681.94;5039397;28;20456;-71
2022/08/17 00:49:36;;;;;;;8.87;8.00;;;;;;;20.23;97.82;99678.78;5033434;28;20467;-71
2022/08/17 00:52:10;;;;;;;7.10;6.40;;;;;;;20.24;97.52;99681.38;5038937;28;20476;-71
2022/08/17 00:54:38;;;;;;;8.70;7.20;;;;;;;20.12;99.14;99674.34;5039134;28;20445;-72
2022/08/17 00:57:09;;;;;;;7.60;6.20;;;;;;;20.12;98.74;99677.94;5031516;28;20464;-73
2022/08/17 00:59:39;;;;;;;9.03;6.77;;;;;;;19.97;100.00;99665.78;5031575;28;20455;-71
2022/08/17 01:02:08;;;;;;;9.57;6.33;;;;;;;20.01;99.58;99667.19;5042742;28;20518;-72
2022/08/17 01:04:36;;;;;;;10.87;7.23;;;;;;;19.94;99.66;99675.16;5028743;28;20459;-70
2022/08/17 01:07:04;;;;;;;8.30;6.80;;;;;;;19.95;99.36;99676.84;5045228;28;20455;-70
2022/08/17 01:09:31;;;;;;;10.47;6.43;;;;;;;19.90;99.64;99672.81;5038746;28;20485;-70
2022/08/17 01:11:58;;;;;;;7.80;7.00;;;;;;;19.90;99.85;99672.81;5027926;28;20507;-72
2022/08/17 01:14:26;;;;;;;7.00;6.30;;;;;;;19.87;100.00;99681.34;5038874;28;20475;-70
2022/08/17 01:16:55;;;;;;;8.27;7.47;;;;;;;19.78;100.00;99674.88;5034690;28;20448;-71
2022/08/17 01:19:27;;;;;;;9.80;6.80;;;;;;;19.70;100.00;99675.63;5039130;28;20445;-70
2022/08/17 01:22:08;;;;;;;11.00;7.13;;;;;;;19.67;100.00;99677.72;5037739;28;20502;-71
2022/08/17 01:24:40;;;;;;;8.03;7.23;;;;;;;19.56;100.00;99684.22;5040629;28;20440;-70
2022/08/17 01:27:08;;;;;;;8.90;8.00;;;;;;;19.49;100.00;99674.88;5035184;28;20958;-71
2022/08/17 01:29:39;;;;;;;9.00;7.83;;;;;;;19.51;100.00;99679.19;5033668;28;20491;-70
2022/08/17 01:32:07;;;;;;;9.80;8.80;;;;;;;19.54;100.00;99680.78;5036291;28;21052;-71
2022/08/17 01:34:34;;;;;;;9.50;7.47;;;;;;;19.57;100.00;99684.06;5040501;28;20480;-71
2022/08/17 01:37:01;;;;;;;9.80;8.20;;;;;;;19.59;100.00;99684.78;5036636;28;20988;-71
2022/08/17 01:39:33;;;;;;;10.30;8.30;;;;;;;19.60;100.00;99688.38;5038187;28;20461;-70
2022/08/17 01:42:08;;;;;;;9.07;8.00;;;;;;;19.57;100.00;99696.88;5042276;28;20908;-70
2022/08/17 01:44:35;;;;;;;11.13;7.30;;;;;;;19.64;100.00;99680.75;5023398;28;20458;-71
2022/08/17 01:47:01;;;;;;;8.97;8.17;;;;;;;19.62;100.00;99680.91;5040012;28;20452;-70
2022/08/17 01:49:28;;;;;;;10.10;8.10;;;;;;;19.62;100.00;99680.91;5039711;28;20468;-71
2022/08/17 01:51:55;;;;;;;9.27;8.27;;;;;;;19.69;100.00;99682.06;5038927;28;20825;-70
2022/08/17 01:54:23;;;;;;;9.70;8.77;;;;;;;19.68;100.00;99680.31;5029910;28;20491;-70
2022/08/17 01:56:51;;;;;;;8.43;7.70;;;;;;;19.79;100.00;99682.06;5035329;28;20453;-70
2022/08/17 01:59:20;;;;;;;9.23;8.33;;;;;;;19.86;100.00;99685.94;5039942;28;20877;-70
2022/08/17 02:01:47;;;;;;;8.67;7.80;;;;;;;19.84;100.00;99693.41;5033383;28;20476;-70
2022/08/17 02:04:14;;;;;;;10.90;8.60;;;;;;;19.84;100.00;99670.72;5033958;28;20560;-70
2022/08/17 02:06:43;;;;;;;11.40;8.20;;;;;;;19.90;100.00;99672.81;5042563;28;20432;-70
2022/08/17 02:09:11;;;;;;;13.20;8.10;;;;;;;19.92;100.00;99671.69;5036436;28;20444;-69
2022/08/17 02:11:38;;;;;;;10.13;8.03;;;;;;;19.98;100.00;99667.50;5031852;28;20483;-70
2022/08/17 02:14:07;;;;;;;9.47;7.47;;;;;;;20.00;100.00;99668.22;5038836;28;20484;-71
2022/08/17 02:16:37;;;;;;;9.50;8.40;;;;;;;19.99;100.00;99671.97;5040877;28;20460;-71
2022/08/17 02:19:07;;;;;;;9.80;8.40;;;;;;;19.95;100.00;99674.13;5042807;28;20460;-70
2022/08/17 02:21:33;;;;;;;8.93;7.77;;;;;;;19.91;100.00;99671.84;5036277;28;20510;-71
2022/08/17 02:24:00;;;;;;;8.27;7.43;;;;;;;19.90;100.00;99672.81;5038741;28;20970;-70
2022/08/17 02:26:27;;;;;;;9.67;8.17;;;;;;;19.87;100.00;99663.06;5051406;28;20439;-70
2022/08/17 02:28:53;;;;;;;8.27;7.47;;;;;;;19.90;100.00;99664.63;5036910;28;20819;-70
2022/08/17 02:31:20;;;;;;;9.20;8.00;;;;;;;19.89;100.00;99665.66;5031207;28;20504;-70
2022/08/17 02:33:48;;;;;;;12.07;8.20;;;;;;;19.94;100.00;99671.53;5043901;28;20483;-70
2022/08/17 02:36:14;;;;;;;8.70;7.80;;;;;;;19.94;100.00;99675.16;5051742;28;20495;-69
2022/08/17 02:38:42;;;;;;;8.87;7.97;;;;;;;19.91;100.00;99671.84;5052726;28;20547;-70
2022/08/17 02:41:11;;;;;;;9.67;8.07;;;;;;;19.95;100.00;99670.53;5043049;28;20484;-70
2022/08/17 02:43:38;;;;;;;8.77;7.97;;;;;;;19.99;100.00;99671.97;5035127;28;20543;-71
2022/08/17 02:46:05;;;;;;;11.00;8.20;;;;;;;20.07;100.00;99673.94;5045318;28;20460;-71
2022/08/17 02:48:31;;;;;;;8.60;7.30;;;;;;;20.09;100.00;99674.66;5036919;28;20451;-70
2022/08/17 02:50:59;;;;;;;7.93;7.23;;;;;;;20.14;99.96;99673.19;5032981;28;20482;-71
2022/08/17 02:53:26;;;;;;;9.57;8.20;;;;;;;20.07;100.00;99679.41;5041325;28;20477;-70
2022/08/17 02:55:53;;;;;;;7.93;7.13;;;;;;;20.04;100.00;99679.72;5046027;28;20456;-70
2022/08/17 02:58:20;;;;;;;11.03;7.63;;;;;;;20.02;100.00;99674.41;5044315;28;20455;-71
2022/08/17 03:00:47;;;;;;;9.77;8.23;;;;;;;20.03;100.00;99677.97;5046262;28;20486;-71
2022/08/17 03:03:17;;;;;;;10.13;7.43;;;;;;;20.03;100.00;99678.84;5044743;28;20462;-70
2022/08/17 03:05:44;;;;;;;9.50;7.63;;;;;;;19.97;100.00;99676.72;5037948;28;20992;-71
2022/08/17 03:08:12;;;;;;;8.93;7.90;;;;;;;19.90;100.00;99679.19;5037252;28;20531;-70
2022/08/17 03:10:39;;;;;;;8.40;7.50;;;;;;;19.82;100.00;99684.50;5041295;28;20487;-70
2022/08/17 03:13:05;;;;;;;10.43;7.50;;;;;;;19.79;100.00;99693.00;5044934;28;20463;-71
2022/08/17 03:15:34;;;;;;;8.60;7.80;;;;;;;19.78;100.00;99686.66;5046125;28;20440;-71
2022/08/17 03:18:02;;;;;;;8.10;7.30;;;;;;;19.72;100.00;99700.91;5043961;28;20459;-71
2022/08/17 03:20:32;;;;;;;9.90;7.77;;;;;;;19.66;100.00;99698.72;5030659;28;20578;-70
2022/08/17 03:22:59;;;;;;;9.13;7.93;;;;;;;19.56;100.00;99692.44;5031534;28;20480;-70
2022/08/17 03:25:29;;;;;;;8.30;7.50;;;;;;;19.55;100.00;99696.16;5030897;28;20828;-71
2022/08/17 03:27:56;;;;;;;10.10;8.27;;;;;;;19.60;100.00;99693.84;5044400;28;20452;-70
2022/08/17 03:30:25;;;;;;;8.20;7.40;;;;;;;19.54;100.00;99699.91;5042210;28;20480;-71
2022/08/17 03:32:55;;;;;;;13.60;7.90;;;;;;;19.56;100.00;99693.28;5040713;28;20455;-70
2022/08/17 03:35:25;;;;;;;12.83;8.60;;;;;;;19.53;100.00;99688.09;5032174;28;20487;-70
2022/08/17 03:37:52;;;;;;;9.63;8.63;;;;;;;19.54;100.00;99694.44;5033650;28;20833;-72
2022/08/17 03:40:19;;;;;;;9.80;8.90;;;;;;;19.44;100.00;99693.56;5033095;28;20483;-71
2022/08/17 03:42:47;;;;;;;10.03;8.43;;;;;;;19.36;100.00;99691.56;5043566;28;20456;-71
2022/08/17 03:56:40;;;;;;;8.80;8.00;;;;;;;19.36;100.00;99692.41;5035328;28;20534;-69
2022/08/17 03:56:42;;;;;;;11.30;9.10;;;;;;;19.31;100.00;99700.19;4914816;29;20474;-71
2022/08/17 03:59:11;;;;;;;11.50;8.53;;;;;;;19.28;100.00;99694.13;4927734;29;20468;-70
2022/08/17 04:01:38;;;;;;;12.30;8.93;;;;;;;19.27;100.00;99687.81;4931885;29;20481;-71
2022/08/17 04:04:05;;;;;;;10.30;9.30;;;;;;;19.22;100.00;99687.38;4933530;29;20541;-69
2022/08/17 04:06:32;;;;;;;11.93;9.63;;;;;;;19.25;100.00;99687.09;4931474;29;21265;-72
2022/08/17 04:08:58;;;;;;;11.13;9.70;;;;;;;19.29;100.00;99683.09;4932925;29;21010;-70
2022/08/17 04:11:25;;;;;;;9.73;8.30;;;;;;;19.36;100.00;99683.38;4985896;23;20491;-70
2022/08/17 04:13:51;;;;;;;8.67;7.60;;;;;;;19.37;100.00;99680.47;5055552;28;20485;-70
2022/08/17 04:16:20;;;;;;;10.23;8.90;;;;;;;19.45;100.00;99677.03;5062193;28;20533;-70
2022/08/17 04:18:46;;;;;;;11.87;9.00;;;;;;;19.54;100.00;99665.25;5066678;28;21014;-71
2022/08/17 04:21:13;;;;;;;9.90;9.00;;;;;;;19.57;100.00;99669.56;5070495;28;20454;-70
2022/08/17 04:23:39;;;;;;;9.47;8.47;;;;;;;19.65;100.00;99672.44;5051112;28;20463;-69
2022/08/17 04:26:06;;;;;;;8.73;7.90;;;;;;;19.66;100.00;99671.41;5039027;28;20491;-71
2022/08/17 04:28:32;;;;;;;9.97;8.90;;;;;;;19.68;100.00;99680.31;5056250;28;20451;-69
2022/08/17 04:30:59;;;;;;;9.83;8.90;;;;;;;19.76;100.00;99679.63;5053820;28;20977;-70
2022/08/17 04:33:29;;;;;;;11.10;8.87;;;;;;;19.83;100.00;99688.97;5041848;28;20452;-70
2022/08/17 04:35:58;;;;;;;11.70;9.27;;;;;;;19.83;100.00;99688.97;5047724;28;20455;-70
2022/08/17 04:38:26;;;;;;;13.10;9.60;;;;;;;19.82;100.00;99689.13;5047316;28;20460;-70
2022/08/17 04:43:40;;;;;;;13.33;9.20;;;;;;;19.88;100.00;99688.53;5044225;28;20446;-71
2022/08/17 04:46:09;;;;;;;10.40;8.87;;;;;;;19.95;100.00;99687.78;5061143;28;20461;-70
2022/08/17 04:48:40;;;;;;;10.27;8.23;;;;;;;20.02;100.00;99693.53;5053187;28;20457;-71
2022/08/17 04:51:09;;;;;;;10.47;8.30;;;;;;;20.04;100.00;99696.97;5052008;28;20488;-69
2022/08/17 04:53:36;;;;;;;11.83;8.80;;;;;;;20.06;100.00;99700.44;5047081;28;20456;-70
2022/08/17 04:56:04;;;;;;;9.23;7.87;;;;;;;20.12;98.79;99699.81;5063178;28;20444;-70
2022/08/17 04:58:31;;;;;;;7.60;6.80;;;;;;;20.23;96.36;99696.06;5056003;28;20462;-70
2022/08/17 05:00:57;;;;;;;7.50;6.80;;;;;;;20.34;95.35;99703.22;5051591;28;20514;-70
2022/08/17 05:03:24;;;;;;;8.10;7.30;;;;;;;20.52;93.16;99706.03;5054969;28;20462;-69
2022/08/17 05:05:52;;;;;;;9.70;6.83;;;;;;;20.65;91.19;99705.72;5060755;28;20456;-70
2022/08/17 05:08:20;;;;;;;9.47;6.03;;;;;;;20.76;90.03;99702.78;5046583;28;20929;-70
2022/08/17 05:10:48;;;;;;;7.40;6.70;;;;;;;20.86;88.98;99708.19;5051857;28;20463;-71
2022/08/17 05:13:17;;;;;;;8.00;7.30;;;;;;;21.00;87.65;99718.63;5050045;28;20464;-71
2022/08/17 05:15:46;;;;;;;9.40;7.30;;;;;;;21.13;86.12;99723.75;5050552;28;20582;-72
2022/08/17 05:18:12;;;;;;;11.30;7.03;;;;;;;21.28;84.82;99716.72;5050387;28;20459;-70
2022/08/17 05:20:40;;;;;;;7.40;6.70;;;;;;;21.38;83.64;99720.25;5050547;28;20470;-71
2022/08/17 05:23:10;;;;;;;8.77;6.03;;;;;;;21.47;82.71;99721.22;5047842;28;20467;-71
2022/08/17 05:25:40;;;;;;;6.83;6.07;;;;;;;21.61;82.18;99715.19;5051484;28;20432;-71
2022/08/17 05:28:08;;;;;;;6.87;6.07;;;;;;;21.75;81.18;99721.97;5048157;28;20467;-71
2022/08/17 05:30:35;;;;;;;8.03;7.07;;;;;;;21.92;80.39;99717.50;5047025;28;20435;-73
2022/08/17 05:33:05;;;;;;;7.27;6.57;;;;;;;22.12;78.79;99720.91;5049149;28;20482;-71
2022/08/17 05:35:34;;;;;;;7.27;6.33;;;;;;;22.43;77.69;99725.91;5048383;28;20483;-70
2022/08/17 05:38:00;;;;;;;8.90;6.70;;;;;;;22.59;76.01;99734.28;5053274;28;20459;-72
2022/08/17 05:40:29;;;;;;;6.80;6.10;;;;;;;22.78;74.81;99738.63;5053109;28;20440;-70
2022/08/17 05:43:05;;;;;;;6.53;5.83;;;;;;;23.01;74.00;99732.59;5062817;28;20476;-71
2022/08/17 05:45:32;;;;;;;5.97;5.37;;;;;;;23.16;72.57;99732.81;5053503;28;20435;-72
2022/08/17 05:47:59;;;;;;;8.57;5.90;;;;;;;23.22;73.47;99730.28;5050669;28;20440;-73
2022/08/17 05:50:31;;;;;;;9.37;7.00;;;;;;;23.25;76.13;99738.16;5050433;28;20459;-74
2022/08/17 05:53:05;;;;;;;8.90;7.13;;;;;;;22.92;78.39;99733.56;5050265;28;20475;-71
2022/08/17 05:55:45;;;;;;;7.33;6.40;;;;;;;22.95;78.39;99709.38;5054914;28;20462;-71
2022/08/17 05:58:22;;;;;;;11.07;6.40;;;;;;;22.98;73.67;99702.69;5035072;28;20487;-74
2022/08/17 06:00:58;;;;;;;6.87;6.17;;;;;;;23.02;72.46;99709.56;5049368;28;20443;-70
2022/08/17 06:03:36;;;;;;;8.07;6.40;;;;;;;23.27;70.96;99713.28;5051800;28;20438;-71
2022/08/17 06:06:23;;;;;;;9.03;5.70;;;;;;;23.37;69.91;99718.63;5039479;28;20874;-70
2022/08/17 06:08:53;;;;;;;7.33;6.10;;;;;;;23.46;69.60;99720.34;5045574;28;20434;-72
2022/08/17 06:11:29;;;;;;;10.00;6.10;;;;;;;23.67;69.16;99715.19;5051041;28;20972;-72
2022/08/17 06:14:23;;;;;;;8.50;6.40;;;;;;;23.72;68.29;99721.06;5064370;28;20446;-71
2022/08/17 06:16:55;;;;;;;8.07;5.73;;;;;;;23.76;68.33;99718.00;5059060;28;20443;-73
2022/08/17 06:19:31;;;;;;;9.53;6.33;;;;;;;23.82;67.50;99720.91;5044999;28;20459;-73
2022/08/17 06:22:01;;;;;;;8.43;6.33;;;;;;;23.82;66.89;99723.66;5046730;28;21030;-73
2022/08/17 06:24:33;;;;;;;12.47;6.10;;;;;;;23.92;67.26;99713.38;5052873;28;20427;-72
2022/08/17 06:27:07;;;;;;;7.77;5.93;;;;;;;24.03;66.09;99725.88;5051590;28;20463;-70
2022/08/17 06:29:41;;;;;;;6.80;5.83;;;;;;;24.11;65.30;99727.78;5056803;28;20481;-71
2022/08/17 06:32:11;;;;;;;10.70;6.67;;;;;;;24.08;65.56;99725.38;5060770;28;20826;-71
2022/08/17 06:34:38;;;;;;;10.83;6.37;;;;;;;24.13;65.24;99726.59;5053511;28;20564;-72
2022/08/17 06:37:32;;;;;;;7.80;6.07;;;;;;;24.13;65.29;99722.97;5055936;28;20465;-72
2022/08/17 06:40:14;;;;;;;13.97;6.70;;;;;;;24.16;64.69;99730.88;5037549;28;20472;-76
2022/08/17 06:42:51;;;;;;;8.10;6.87;;;;;;;24.32;64.37;99752.00;5039591;28;20973;-71
2022/08/17 06:45:26;;;;;;;11.80;7.30;;;;;;;24.26;64.45;99758.19;5052952;28;21143;-70
2022/08/17 06:47:59;;;;;;;12.60;6.80;;;;;;;24.17;64.68;99753.72;5054713;28;20874;-73
2022/08/17 06:50:35;;;;;;;12.20;7.33;;;;;;;24.10;64.95;99750.81;5045512;28;20487;-72
2022/08/17 06:53:09;;;;;;;11.43;7.27;;;;;;;24.12;65.25;99757.00;5056641;28;20452;-72
2022/08/17 06:55:45;;;;;;;10.70;6.90;;;;;;;24.09;65.50;99762.84;5039593;28;20472;-70
2022/08/17 06:58:14;;;;;;;10.73;6.50;;;;;;;24.03;66.32;99764.38;5054446;28;20463;-70
2022/08/17 07:00:44;;;;;;;11.20;7.00;;;;;;;23.91;66.87;99761.13;5048901;28;20455;-70
2022/08/17 07:03:19;;;;;;;13.93;7.10;;;;;;;23.97;67.10;99759.59;5065474;28;20447;-72
2022/08/17 07:05:51;;;;;;;7.93;6.47;;;;;;;23.98;67.21;99763.19;5056597;28;20522;-70
2022/08/17 07:08:23;;;;;;;8.33;6.77;;;;;;;23.94;67.50;99755.28;5056626;28;20448;-71
2022/08/17 07:10:55;;;;;;;9.33;7.00;;;;;;;23.92;67.67;99753.72;5048920;28;20452;-71
2022/08/17 07:13:43;;;;;;;13.60;7.50;;;;;;;24.03;67.42;99753.38;5063944;28;20428;-72
2022/08/17 07:16:18;;;;;;;15.27;7.47;;;;;;;24.05;67.22;99762.34;5051579;28;20977;-70
2022/08/17 07:18:45;;;;;;;8.10;7.33;;;;;;;24.03;66.95;99749.78;5055070;28;20927;-71
2022/08/17 07:21:27;;;;;;;11.30;7.60;;;;;;;24.13;66.32;99756.84;5056641;28;20460;-71
2022/08/17 07:24:03;;;;;;;8.40;7.17;;;;;;;24.27;65.99;99755.28;5047497;28;20474;-71
2022/08/17 07:26:29;;;;;;;8.63;7.33;;;;;;;24.18;65.59;99750.81;5056807;28;20428;-71
2022/08/17 07:29:01;;;;;;;10.10;7.50;;;;;;;24.20;65.40;99746.00;5056232;28;20443;-70
2022/08/17 07:31:32;;;;;;;10.00;6.60;;;;;;;24.23;65.51;99747.53;5056839;28;20460;-70
2022/08/17 07:34:05;;;;;;;11.03;6.80;;;;;;;24.41;65.40;99741.84;5056925;28;20424;-69
2022/08/17 07:36:33;;;;;;;7.67;6.77;;;;;;;24.62;64.44;99753.16;5056332;28;20479;-70
2022/08/17 07:39:00;;;;;;;8.40;6.97;;;;;;;24.81;64.03;99751.06;5056784;28;20494;-70
2022/08/17 07:41:28;;;;;;;8.87;6.93;;;;;;;24.87;63.00;99753.94;5056016;28;20475;-71
2022/08/17 07:43:57;;;;;;;10.03;7.77;;;;;;;24.83;62.50;99754.47;5058054;28;20431;-70
2022/08/17 07:49:19;;;;;;;8.60;7.20;;;;;;;24.59;63.69;99770.03;5047382;28;20502;-70
2022/08/17 07:52:02;;;;;;;9.00;7.00;;;;;;;24.70;63.14;99777.94;5036373;28;20460;-70
2022/08/17 07:54:31;;;;;;;8.73;7.33;;;;;;;24.68;63.43;99777.25;5048336;28;20460;-71
2022/08/17 07:57:00;;;;;;;7.83;7.13;;;;;;;24.45;64.18;99779.84;5052726;28;20439;-71
2022/08/17 07:59:31;;;;;;;9.60;7.00;;;;;;;24.64;64.14;99780.53;5055735;28;20555;-70
2022/08/17 08:02:26;;;;;;;10.90;7.47;;;;;;;24.50;64.25;99785.72;5059634;28;20466;-70
2022/08/17 08:05:02;;;;;;;8.10;7.30;;;;;;;24.46;65.05;99791.69;5050133;28;20432;-70
2022/08/17 08:07:33;;;;;;;9.03;8.17;;;;;;;24.25;65.53;99784.00;5055529;28;20502;-71
2022/08/17 08:10:05;;;;;;;7.87;7.03;;;;;;;24.31;65.97;99775.91;5049271;28;20479;-71
2022/08/17 08:12:34;;;;;;;9.80;7.57;;;;;;;24.38;66.13;99767.81;5055413;28;20483;-72
2022/08/17 08:15:12;;;;;;;10.97;8.03;;;;;;;24.41;65.94;99763.84;5059162;28;21021;-71
2022/08/17 08:17:48;;;;;;;9.00;7.50;;;;;;;24.41;65.32;99778.47;5038827;28;20694;-71
2022/08/17 08:20:16;;;;;;;9.97;7.17;;;;;;;24.36;65.28;99780.88;5065071;28;20462;-72
2022/08/17 08:22:51;;;;;;;12.50;8.07;;;;;;;24.39;65.54;99780.53;5054246;28;20998;-71
2022/08/17 08:25:25;;;;;;;13.83;7.47;;;;;;;24.50;65.25;99788.47;5074214;28;21004;-70
2022/08/17 08:28:01;;;;;;;8.33;7.40;;;;;;;24.57;65.06;99794.13;5049464;28;20463;-71
2022/08/17 08:30:34;;;;;;;9.97;7.97;;;;;;;24.67;65.01;99796.69;5052635;28;20451;-71
2022/08/17 08:33:20;;;;;;;11.27;7.00;;;;;;;24.62;66.08;99812.88;5067233;28;20462;-71
2022/08/17 08:35:53;;;;;;;8.63;7.63;;;;;;;24.65;65.94;99818.91;5073480;28;20547;-72
2022/08/17 08:38:30;;;;;;;8.57;7.00;;;;;;;24.43;68.08;99825.94;5054723;28;20462;-71
2022/08/17 08:41:25;;;;;;;8.30;7.60;;;;;;;24.15;69.77;99828.19;5058643;28;20546;-71
2022/08/17 08:44:04;;;;;;;8.20;7.50;;;;;;;24.16;68.87;99827.16;5039210;28;20510;-71
2022/08/17 08:46:40;;;;;;;8.80;7.47;;;;;;;23.92;70.66;99827.97;5055383;28;20968;-71
2022/08/17 08:49:33;;;;;;;8.60;7.80;;;;;;;23.83;73.84;99832.59;5044161;28;20543;-71
2022/08/17 08:52:02;;;;;;;11.70;7.90;;;;;;;23.75;75.08;99838.09;5038448;28;20543;-71
2022/08/17 08:54:37;;;;;;;9.10;8.10;;;;;;;23.93;75.37;99836.06;5051044;28;20456;-71
2022/08/17 08:57:14;;;;;;;8.57;7.67;;;;;;;23.91;76.10;99831.78;5056679;28;20449;-71
2022/08/17 08:59:49;;;;;;;11.33;9.43;;;;;;;23.76;75.69;99830.72;5059140;28;20438;-71
2022/08/17 09:02:29;;;;;;;11.83;8.30;;;;;;;23.53;78.38;99834.06;5062599;28;21063;-71
2022/08/17 09:05:10;;;;;;;8.40;7.70;;;;;;;23.64;79.43;99836.50;5055807;28;20430;-71
2022/08/17 09:07:50;;;;;;;11.73;8.30;;;;;;;23.84;80.08;99833.50;5035059;28;20425;-71
2022/08/17 09:10:25;;;;;;;13.07;9.40;;;;;;;24.06;79.84;99829.19;5034878;28;20440;-72
2022/08/17 09:13:03;;;;;;;10.50;9.40;;;;;;;24.29;77.48;99799.97;5045139;28;20483;-71
2022/08/17 09:15:34;;;;;;;10.37;9.00;;;;;;;24.42;75.74;99815.97;5044133;28;20992;-71
2022/08/17 09:18:08;;;;;;;13.27;9.47;;;;;;;24.63;74.08;99817.34;5056447;28;20441;-71
2022/08/17 09:20:42;;;;;;;9.90;9.00;;;;;;;24.72;72.53;99816.31;5057652;28;20944;-73
2022/08/17 09:23:16;;;;;;;12.17;9.60;;;;;;;24.75;72.60;99826.97;5060233;28;20475;-71
2022/08/17 09:25:49;;;;;;;14.00;8.93;;;;;;;24.54;77.69;99839.38;5039414;28;20428;-72
2022/08/17 09:28:19;;;;;;;10.83;8.30;;;;;;;24.42;78.74;99842.63;5038244;28;20482;-72
2022/08/17 09:30:50;;;;;;;10.40;9.40;;;;;;;24.65;77.66;99826.28;5038435;28;20435;-71
2022/08/17 09:33:24;;;;;;;10.20;8.50;;;;;;;24.98;76.65;99829.81;5043488;28;20464;-72
2022/08/17 09:36:01;;;;;;;9.73;8.83;;;;;;;25.43;74.74;99827.44;5052026;28;20464;-74
2022/08/17 09:38:38;;;;;;;14.63;9.00;;;;;;;25.76;72.92;99823.47;5064446;28;20453;-71
2022/08/17 09:41:13;;;;;;;10.17;8.87;;;;;;;25.70;70.16;99829.69;5056641;28;20473;-71
2022/08/17 09:43:46;;;;;;;9.73;8.73;;;;;;;26.06;68.89;99836.56;5052701;28;20546;-71
2022/08/17 09:46:20;;;;;;;10.50;8.73;;;;;;;26.14;68.62;99842.88;5049607;28;20447;-71
2022/08/17 09:48:54;;;;;;;10.37;8.83;;;;;;;26.59;66.83;99837.50;5058370;28;20463;-71
2022/08/17 09:51:30;;;;;;;10.07;9.17;;;;;;;26.46;66.06;99845.53;5059851;28;20482;-74
2022/08/17 09:53:57;;;;;;;12.13;9.40;;;;;;;26.28;65.61;99846.75;5055122;28;20451;-72
2022/08/17 09:56:42;;;;;;;10.20;9.20;;;;;;;26.15;66.31;99841.84;5062645;28;20490;-71
2022/08/17 09:59:23;;;;;;;9.07;8.07;;;;;;;26.13;66.81;99843.91;5044259;28;20452;-70
2022/08/17 10:01:59;;;;;;;9.93;9.03;;;;;;;26.47;65.25;99842.59;5052114;28;20471;-71
2022/08/17 10:04:39;;;;;;;10.90;7.83;;;;;;;27.14;63.00;99839.00;5049620;28;20461;-72
2022/08/17 10:07:13;;;;;;;8.83;7.97;;;;;;;27.48;59.76;99845.88;5085954;28;20434;-69
2022/08/17 10:09:51;;;;;;;8.53;7.43;;;;;;;27.62;57.86;99856.03;5080090;28;20446;-70
2022/08/17 10:12:29;;;;;;;8.63;7.87;;;;;;;27.24;58.81;99844.28;5057007;22;20497;-72
2022/08/17 10:15:06;;;;;;;10.73;9.20;;;;;;;27.41;56.64;99839.41;5036715;28;20553;-72
2022/08/17 10:17:42;;;;;;;12.00;10.53;;;;;;;27.19;58.31;99846.72;5052329;28;20514;-71
2022/08/17 10:20:16;;;;;;;53.07;38.50;;;;;;;27.31;59.34;99856.28;5052847;28;20936;-72
2022/08/17 10:28:32;;;;;;;26.17;22.47;;;;;;;26.98;57.01;99856.63;5013575;28;20514;-71
2022/08/17 10:31:02;;;;;;;17.67;15.60;;;;;;;27.91;52.85;99857.06;5032888;28;20437;-72
2022/08/17 10:33:41;;;;;;;14.57;12.97;;;;;;;27.12;56.11;99863.22;5025492;28;21006;-72
2022/08/17 10:36:16;;;;;;;12.60;11.30;;;;;;;26.98;56.88;99864.94;5014020;28;20555;-72
2022/08/17 10:38:46;;;;;;;9.83;8.93;;;;;;;27.60;54.64;99860.06;5030562;28;20486;-72
2022/08/17 10:41:27;;;;;;;10.90;9.87;;;;;;;27.78;52.15;99856.88;5032493;28;20866;-71
2022/08/17 10:44:02;;;;;;;12.70;10.80;;;;;;;29.23;49.83;99839.91;5030096;28;20496;-72
2022/08/17 10:46:51;;;;;;;8.70;7.80;;;;;;;30.59;44.50;99854.84;5032170;28;21120;-71
2022/08/17 10:49:32;;;;;;;10.47;8.30;;;;;;;29.50;47.30;99856.69;5008620;28;20560;-71
2022/08/17 10:52:03;;;;;;;8.67;7.77;;;;;;;29.00;49.39;99875.34;5032573;28;20499;-71
2022/08/17 10:54:45;;;;;;;10.80;8.40;;;;;;;28.24;51.87;99864.84;5027458;28;20942;-71
2022/08/17 10:57:38;;;;;;;9.10;7.80;;;;;;;27.95;53.10;99866.69;5015768;28;20473;-72
2022/08/17 11:00:13;;;;;;;8.83;7.80;;;;;;;27.49;54.46;99863.31;5021541;28;20504;-74
2022/08/17 11:02:48;;;;;;;11.43;8.23;;;;;;;27.16;55.63;99872.84;5024372;28;20476;-71
2022/08/17 11:05:32;;;;;;;10.27;9.07;;;;;;;26.62;57.35;99879.44;5034693;28;20514;-72
2022/08/17 11:08:16;;;;;;;8.23;7.43;;;;;;;26.59;58.04;99892.75;5029576;28;20548;-73
2022/08/17 11:10:57;;;;;;;9.70;8.30;;;;;;;26.42;58.52;99894.75;5029753;28;20463;-72
2022/08/17 11:13:34;;;;;;;9.20;7.80;;;;;;;25.92;61.80;99896.16;5030861;28;20852;-72
2022/08/17 11:16:13;;;;;;;9.80;8.50;;;;;;;25.83;62.68;99900.81;5047015;28;20472;-71
2022/08/17 11:19:17;;;;;;;9.53;8.30;;;;;;;25.71;62.02;99897.63;5055573;28;20432;-72
2022/08/17 11:22:00;;;;;;;9.60;8.70;;;;;;;25.79;63.04;99900.31;4958195;28;20460;-73
2022/08/17 11:24:35;;;;;;;10.20;8.60;;;;;;;25.67;64.04;99899.00;4963092;28;20509;-72
2022/08/17 11:27:08;;;;;;;9.47;8.67;;;;;;;25.80;63.97;99898.41;4973540;28;20424;-71
2022/08/17 11:29:38;;;;;;;10.10;9.17;;;;;;;26.12;62.64;99893.78;4953022;28;20465;-73
2022/08/17 11:32:12;;;;;;;10.43;9.50;;;;;;;26.58;60.92;99891.03;4952523;29;20477;-72
2022/08/17 11:34:42;;;;;;;9.80;8.90;;;;;;;26.77;60.69;99886.88;4943238;29;20447;-72
2022/08/17 11:37:41;;;;;;;10.53;9.43;;;;;;;27.07;59.82;99887.81;4942883;29;21137;-72
2022/08/17 11:40:37;;;;;;;9.00;8.13;;;;;;;28.02;56.44;99877.84;4918828;29;20459;-72
2022/08/17 11:43:28;;;;;;;9.53;8.40;;;;;;;29.24;52.36;99880.44;4951531;28;20476;-72
2022/08/17 11:46:13;;;;;;;8.70;7.90;;;;;;;30.44;50.29;99888.41;4952327;29;20442;-73
2022/08/17 11:52:10;;;;;;;8.87;7.80;;;;;;;32.04;45.21;99894.56;4947164;28;20484;-74
2022/08/17 11:54:40;;;;;;;8.87;6.93;;;;;;;35.25;37.28;99913.03;4940285;29;20928;-75
2022/08/17 11:57:54;;;;;;;9.40;7.40;;;;;;;36.18;36.02;99893.50;4980448;28;20508;-75
2022/08/17 12:00:47;;;;;;;10.97;8.10;;;;;;;34.11;38.19;99884.34;5032175;28;20452;-71
2022/08/17 12:03:41;;;;;;;7.50;6.80;;;;;;;34.61;37.72;99893.25;5036140;28;20465;-72
2022/08/17 12:06:18;;;;;;;6.53;5.93;;;;;;;36.06;35.18;99885.13;5038338;28;20421;-73
2022/08/17 12:08:52;;;;;;;6.17;5.67;;;;;;;34.98;34.75;99895.84;5042392;28;20431;-74
2022/08/17 12:11:23;;;;;;;5.80;5.10;;;;;;;33.65;36.83;99886.63;5042045;28;20420;-73
2022/08/17 12:13:56;;;;;;;6.13;5.50;;;;;;;33.23;37.74;99892.84;5027488;28;20973;-74